Boyne Falls, MI (49713)

7:29 AM EDT on August 05, 2015 (GMT -0400)
Boyne Mountain Resort | | Change Station
CLOSE
Current Station
Personal Weather Station
Location: Boyne Falls, MI
Elevation: 724 ft
Nearby Weather Stations

Elev 724 ft 45.16 °N, 84.93 °W | Updated 2 seconds ago

Partly Cloudy
Partly Cloudy
53.2 °F
Feels Like 53.2 °F
N
0.0
Wind Variable Wind from ESE
Gusts 3.0 mph

Today
High -- | Low -- °F
--% Chance of Precip.
Yesterday
High -- | Low -- °F
Precip. -- in
6:28 AM 9:01 PM
Waning Gibbous, 68% visible
Pressure 30.06 in
Visibility 10.0 miles
Clouds Clear
Dew Point 52 °F
Humidity 94%
Rainfall 0.00 in
Snow Depth Not available.
UV 0 out of 12
Pollen 6.70 out of 12
Air Quality Not available.
Flu Activity Not available.
METAR KGLR 051053Z AUTO 29003KT 10SM CLR 11/11 A3006 RMK AO2 SLP180 T01110106

More Conditions Fewer Conditions

Pressure 30.06 in
Visibility 10.0 miles
Clouds Clear
Dew Point 52 °F
Humidity 94%
Rainfall 0.00 in
Snow Depth Not available.
UV 0 out of 12
Pollen 6.70 out of 12
Air Quality Not available.
Flu Activity Not available.
METAR KGLR 051053Z AUTO 29003KT 10SM CLR 11/11 A3006 RMK AO2 SLP180 T01110106

More Conditions Fewer Conditions

Nowcast | as of 7:00 am EDT on August 5, 2015

At 8 am...mostly clear. Temperature 57. North winds 7 mph. At 10 am...mostly clear. Temperature 61. North winds 8 mph. At 12 PM...mostly clear. Temperature 64. Northwest winds 8 mph. At 2 PM...mostly clear. Temperature 67. Northwest winds 9 mph.

×

10-Day Weather Forecast

×

Almanac

Astronomy

Aug. 05, 2015 Rise Set
Actual Time
Civil Twilight
Nautical Twilight
Astronomical Twilight
Moon
Length of Visible Light
Length of Day
Tomorrow will be .
, % of the Moon is Illuminated

Today's Extremes

State Highs State Lows

Community

WunderPhotos

Upload Photos

1,844,133 photos uploaded!

WunderBlogs® & News

Nearby

Air Quality

  Air Quality AQ Index Pollutant
Not available.

Snow Depth

Station Depth Elevation

Earthquake Activity

City Distance Mag. Time & Date
Minimum magnitude displayed is 2.5.

Coastal Water Temperatures

Place Temperature

Stations

Nearby Weather Stations

Station Location Temp. Windchill Dew Point Humidity Wind Precip. Elev Updated Type